sensor_id;sensor_type;location;lat;lon;timestamp;P1;P2;P0
70241;PMS5003;57631;52.218;0.108;2022-11-20T00:02:07;31;29;
70241;PMS5003;57631;52.218;0.108;2022-11-20T00:04:32;33;25;
70241;PMS5003;57631;52.218;0.108;2022-11-20T00:06:57;32;25;
70241;PMS5003;57631;52.218;0.108;2022-11-20T00:09:23;34;31;
70241;PMS5003;57631;52.218;0.108;2022-11-20T00:11:48;26;26;
70241;PMS5003;57631;52.218;0.108;2022-11-20T00:14:14;27;24;
70241;PMS5003;57631;52.218;0.108;2022-11-20T00:16:39;30;26;
70241;PMS5003;57631;52.218;0.108;2022-11-20T00:19:05;29;27;
70241;PMS5003;57631;52.218;0.108;2022-11-20T00:21:31;28;28;
70241;PMS5003;57631;52.218;0.108;2022-11-20T00:23:56;32;31;
70241;PMS5003;57631;52.218;0.108;2022-11-20T00:26:22;28;28;
70241;PMS5003;57631;52.218;0.108;2022-11-20T00:28:49;33;33;
70241;PMS5003;57631;52.218;0.108;2022-11-20T00:31:13;36;34;
70241;PMS5003;57631;52.218;0.108;2022-11-20T00:33:38;32;31;
70241;PMS5003;57631;52.218;0.108;2022-11-20T00:36:04;39;29;
70241;PMS5003;57631;52.218;0.108;2022-11-20T00:38:29;30;28;
70241;PMS5003;57631;52.218;0.108;2022-11-20T00:40:55;35;30;
70241;PMS5003;57631;52.218;0.108;2022-11-20T00:43:20;38;34;
70241;PMS5003;57631;52.218;0.108;2022-11-20T00:45:46;43;35;
70241;PMS5003;57631;52.218;0.108;2022-11-20T00:48:11;30;29;
70241;PMS5003;57631;52.218;0.108;2022-11-20T00:50:37;35;29;
70241;PMS5003;57631;52.218;0.108;2022-11-20T00:53:02;30;28;
70241;PMS5003;57631;52.218;0.108;2022-11-20T00:55:27;41;37;
70241;PMS5003;57631;52.218;0.108;2022-11-20T00:57:52;40;37;
70241;PMS5003;57631;52.218;0.108;2022-11-20T01:00:18;48;38;
70241;PMS5003;57631;52.218;0.108;2022-11-20T01:02:43;48;37;
70241;PMS5003;57631;52.218;0.108;2022-11-20T01:05:09;38;30;
70241;PMS5003;57631;52.218;0.108;2022-11-20T01:07:35;41;35;
70241;PMS5003;57631;52.218;0.108;2022-11-20T01:10:00;49;44;
70241;PMS5003;57631;52.218;0.108;2022-11-20T01:12:26;46;39;
70241;PMS5003;57631;52.218;0.108;2022-11-20T01:14:51;44;38;
70241;PMS5003;57631;52.218;0.108;2022-11-20T01:17:16;46;38;
70241;PMS5003;57631;52.218;0.108;2022-11-20T01:19:42;44;44;
70241;PMS5003;57631;52.218;0.108;2022-11-20T01:22:07;50;48;
70241;PMS5003;57631;52.218;0.108;2022-11-20T01:24:33;44;42;
70241;PMS5003;57631;52.218;0.108;2022-11-20T01:26:58;49;40;
70241;PMS5003;57631;52.218;0.108;2022-11-20T01:29:24;38;36;
70241;PMS5003;57631;52.218;0.108;2022-11-20T01:31:49;53;45;
70241;PMS5003;57631;52.218;0.108;2022-11-20T01:34:15;46;37;
70241;PMS5003;57631;52.218;0.108;2022-11-20T01:36:40;45;40;
70241;PMS5003;57631;52.218;0.108;2022-11-20T01:39:06;48;39;
70241;PMS5003;57631;52.218;0.108;2022-11-20T01:41:31;54;43;
70241;PMS5003;57631;52.218;0.108;2022-11-20T01:43:56;42;37;
70241;PMS5003;57631;52.218;0.108;2022-11-20T01:46:21;41;39;
70241;PMS5003;57631;52.218;0.108;2022-11-20T01:48:49;44;37;
70241;PMS5003;57631;52.218;0.108;2022-11-20T01:51:13;48;43;
70241;PMS5003;57631;52.218;0.108;2022-11-20T01:53:38;46;35;
70241;PMS5003;57631;52.218;0.108;2022-11-20T01:56:05;43;37;
70241;PMS5003;57631;52.218;0.108;2022-11-20T01:58:30;46;36;
70241;PMS5003;57631;52.218;0.108;2022-11-20T02:00:55;46;38;
70241;PMS5003;57631;52.218;0.108;2022-11-20T02:03:19;46;35;
70241;PMS5003;57631;52.218;0.108;2022-11-20T02:05:45;41;35;
70241;PMS5003;57631;52.218;0.108;2022-11-20T02:08:10;41;35;
70241;PMS5003;57631;52.218;0.108;2022-11-20T02:10:36;42;34;
70241;PMS5003;57631;52.218;0.108;2022-11-20T02:13:01;45;39;
70241;PMS5003;57631;52.218;0.108;2022-11-20T02:15:26;46;35;
70241;PMS5003;57631;52.218;0.108;2022-11-20T02:17:52;36;33;
70241;PMS5003;57631;52.218;0.108;2022-11-20T02:20:17;42;32;
70241;PMS5003;57631;52.218;0.108;2022-11-20T02:22:45;48;34;
70241;PMS5003;57631;52.218;0.108;2022-11-20T02:25:08;46;38;
70241;PMS5003;57631;52.218;0.108;2022-11-20T02:27:34;41;39;
70241;PMS5003;57631;52.218;0.108;2022-11-20T02:30:00;39;32;
70241;PMS5003;57631;52.218;0.108;2022-11-20T02:32:25;40;35;
70241;PMS5003;57631;52.218;0.108;2022-11-20T02:34:50;40;32;
70241;PMS5003;57631;52.218;0.108;2022-11-20T02:37:15;38;37;
70241;PMS5003;57631;52.218;0.108;2022-11-20T02:39:41;43;33;
70241;PMS5003;57631;52.218;0.108;2022-11-20T02:42:06;37;31;
70241;PMS5003;57631;52.218;0.108;2022-11-20T02:44:32;40;34;
70241;PMS5003;57631;52.218;0.108;2022-11-20T02:46:57;53;37;
70241;PMS5003;57631;52.218;0.108;2022-11-20T02:49:22;46;40;
70241;PMS5003;57631;52.218;0.108;2022-11-20T02:51:48;40;35;
70241;PMS5003;57631;52.218;0.108;2022-11-20T02:54:13;38;33;
70241;PMS5003;57631;52.218;0.108;2022-11-20T02:56:39;48;40;
70241;PMS5003;57631;52.218;0.108;2022-11-20T02:59:04;37;29;
70241;PMS5003;57631;52.218;0.108;2022-11-20T03:01:30;40;36;
70241;PMS5003;57631;52.218;0.108;2022-11-20T03:03:55;43;36;
70241;PMS5003;57631;52.218;0.108;2022-11-20T03:06:21;43;37;
70241;PMS5003;57631;52.218;0.108;2022-11-20T03:08:46;38;37;
70241;PMS5003;57631;52.218;0.108;2022-11-20T03:11:12;38;30;
70241;PMS5003;57631;52.218;0.108;2022-11-20T03:13:37;43;38;
70241;PMS5003;57631;52.218;0.108;2022-11-20T03:16:07;33;28;
70241;PMS5003;57631;52.218;0.108;2022-11-20T03:18:28;38;28;
70241;PMS5003;57631;52.218;0.108;2022-11-20T03:20:56;34;32;
70241;PMS5003;57631;52.218;0.108;2022-11-20T03:23:19;45;34;
70241;PMS5003;57631;52.218;0.108;2022-11-20T03:25:50;33;29;
70241;PMS5003;57631;52.218;0.108;2022-11-20T03:28:10;35;30;
70241;PMS5003;57631;52.218;0.108;2022-11-20T03:30:36;33;28;
70241;PMS5003;57631;52.218;0.108;2022-11-20T03:33:01;31;24;
70241;PMS5003;57631;52.218;0.108;2022-11-20T03:35:27;32;30;
70241;PMS5003;57631;52.218;0.108;2022-11-20T03:37:52;39;29;
70241;PMS5003;57631;52.218;0.108;2022-11-20T03:40:17;36;28;
70241;PMS5003;57631;52.218;0.108;2022-11-20T03:42:42;28;23;
70241;PMS5003;57631;52.218;0.108;2022-11-20T03:45:07;29;24;
70241;PMS5003;57631;52.218;0.108;2022-11-20T03:47:33;34;31;
70241;PMS5003;57631;52.218;0.108;2022-11-20T03:49:58;43;26;
70241;PMS5003;57631;52.218;0.108;2022-11-20T03:52:24;38;29;
70241;PMS5003;57631;52.218;0.108;2022-11-20T03:54:50;25;24;
70241;PMS5003;57631;52.218;0.108;2022-11-20T03:57:15;31;28;
70241;PMS5003;57631;52.218;0.108;2022-11-20T03:59:40;39;33;
70241;PMS5003;57631;52.218;0.108;2022-11-20T04:02:06;39;32;
70241;PMS5003;57631;52.218;0.108;2022-11-20T04:04:32;34;29;
70241;PMS5003;57631;52.218;0.108;2022-11-20T04:06:58;37;32;
70241;PMS5003;57631;52.218;0.108;2022-11-20T04:09:23;36;29;
70241;PMS5003;57631;52.218;0.108;2022-11-20T04:11:49;29;27;
70241;PMS5003;57631;52.218;0.108;2022-11-20T04:14:14;37;32;
70241;PMS5003;57631;52.218;0.108;2022-11-20T04:16:39;39;32;
70241;PMS5003;57631;52.218;0.108;2022-11-20T04:19:05;33;26;
70241;PMS5003;57631;52.218;0.108;2022-11-20T04:21:30;35;30;
70241;PMS5003;57631;52.218;0.108;2022-11-20T04:23:56;32;27;
70241;PMS5003;57631;52.218;0.108;2022-11-20T04:26:22;43;33;
70241;PMS5003;57631;52.218;0.108;2022-11-20T04:28:47;36;28;
70241;PMS5003;57631;52.218;0.108;2022-11-20T04:31:13;30;29;
70241;PMS5003;57631;52.218;0.108;2022-11-20T04:33:38;41;37;
70241;PMS5003;57631;52.218;0.108;2022-11-20T04:36:04;28;27;
70241;PMS5003;57631;52.218;0.108;2022-11-20T04:38:28;42;33;
70241;PMS5003;57631;52.218;0.108;2022-11-20T04:40:55;34;30;
70241;PMS5003;57631;52.218;0.108;2022-11-20T04:43:19;40;32;
70241;PMS5003;57631;52.218;0.108;2022-11-20T04:48:10;28;25;
70241;PMS5003;57631;52.218;0.108;2022-11-20T04:50:39;26;25;
70241;PMS5003;57631;52.218;0.108;2022-11-20T04:53:01;34;29;
70241;PMS5003;57631;52.218;0.108;2022-11-20T04:55:26;30;24;
70241;PMS5003;57631;52.218;0.108;2022-11-20T04:57:52;30;24;
70241;PMS5003;57631;52.218;0.108;2022-11-20T05:00:18;34;23;
70241;PMS5003;57631;52.218;0.108;2022-11-20T05:02:43;23;23;
70241;PMS5003;57631;52.218;0.108;2022-11-20T05:05:09;26;22;
70241;PMS5003;57631;52.218;0.108;2022-11-20T05:07:35;29;20;
70241;PMS5003;57631;52.218;0.108;2022-11-20T05:10:00;23;16;
70241;PMS5003;57631;52.218;0.108;2022-11-20T05:12:26;24;21;
70241;PMS5003;57631;52.218;0.108;2022-11-20T05:14:51;19;15;
70241;PMS5003;57631;52.218;0.108;2022-11-20T05:17:17;23;22;
70241;PMS5003;57631;52.218;0.108;2022-11-20T05:19:42;21;18;
70241;PMS5003;57631;52.218;0.108;2022-11-20T05:22:07;21;17;
70241;PMS5003;57631;52.218;0.108;2022-11-20T05:24:33;18;17;
70241;PMS5003;57631;52.218;0.108;2022-11-20T05:26:58;24;24;
70241;PMS5003;57631;52.218;0.108;2022-11-20T05:29:24;25;17;
70241;PMS5003;57631;52.218;0.108;2022-11-20T05:31:49;24;17;
70241;PMS5003;57631;52.218;0.108;2022-11-20T05:34:15;20;18;
70241;PMS5003;57631;52.218;0.108;2022-11-20T05:36:40;20;16;
70241;PMS5003;57631;52.218;0.108;2022-11-20T05:39:06;27;20;
70241;PMS5003;57631;52.218;0.108;2022-11-20T05:41:32;22;16;
70241;PMS5003;57631;52.218;0.108;2022-11-20T05:43:57;20;16;
70241;PMS5003;57631;52.218;0.108;2022-11-20T05:46:22;18;16;
70241;PMS5003;57631;52.218;0.108;2022-11-20T05:48:48;17;13;
70241;PMS5003;57631;52.218;0.108;2022-11-20T05:51:14;23;16;
70241;PMS5003;57631;52.218;0.108;2022-11-20T05:53:38;14;12;
70241;PMS5003;57631;52.218;0.108;2022-11-20T05:56:05;22;13;
70241;PMS5003;57631;52.218;0.108;2022-11-20T05:58:30;12;12;
70241;PMS5003;57631;52.218;0.108;2022-11-20T06:01:02;15;14;
70241;PMS5003;57631;52.218;0.108;2022-11-20T06:03:20;16;13;
70241;PMS5003;57631;52.218;0.108;2022-11-20T06:05:46;17;15;
70241;PMS5003;57631;52.218;0.108;2022-11-20T06:08:11;14;13;
70241;PMS5003;57631;52.218;0.108;2022-11-20T06:10:37;15;14;
70241;PMS5003;57631;52.218;0.108;2022-11-20T06:13:02;17;14;
70241;PMS5003;57631;52.218;0.108;2022-11-20T06:15:28;15;11;
70241;PMS5003;57631;52.218;0.108;2022-11-20T06:17:53;15;15;
70241;PMS5003;57631;52.218;0.108;2022-11-20T06:20:19;12;12;
70241;PMS5003;57631;52.218;0.108;2022-11-20T06:22:44;16;12;
70241;PMS5003;57631;52.218;0.108;2022-11-20T06:25:10;12;10;
70241;PMS5003;57631;52.218;0.108;2022-11-20T06:27:36;14;10;
70241;PMS5003;57631;52.218;0.108;2022-11-20T06:30:01;16;10;
70241;PMS5003;57631;52.218;0.108;2022-11-20T06:32:27;22;12;
70241;PMS5003;57631;52.218;0.108;2022-11-20T06:34:52;13;11;
70241;PMS5003;57631;52.218;0.108;2022-11-20T06:37:17;14;11;
70241;PMS5003;57631;52.218;0.108;2022-11-20T06:39:43;13;12;
70241;PMS5003;57631;52.218;0.108;2022-11-20T06:42:08;14;11;
70241;PMS5003;57631;52.218;0.108;2022-11-20T06:44:34;10;10;
70241;PMS5003;57631;52.218;0.108;2022-11-20T06:47:00;13;11;
70241;PMS5003;57631;52.218;0.108;2022-11-20T06:49:25;12;10;
70241;PMS5003;57631;52.218;0.108;2022-11-20T06:51:51;11;11;
70241;PMS5003;57631;52.218;0.108;2022-11-20T06:54:16;12;8;
70241;PMS5003;57631;52.218;0.108;2022-11-20T06:56:41;12;10;
70241;PMS5003;57631;52.218;0.108;2022-11-20T06:59:07;13;11;
70241;PMS5003;57631;52.218;0.108;2022-11-20T07:01:33;16;13;
70241;PMS5003;57631;52.218;0.108;2022-11-20T07:03:58;12;8;
70241;PMS5003;57631;52.218;0.108;2022-11-20T07:06:24;11;11;
70241;PMS5003;57631;52.218;0.108;2022-11-20T07:08:50;10;10;
70241;PMS5003;57631;52.218;0.108;2022-11-20T07:11:15;11;8;
70241;PMS5003;57631;52.218;0.108;2022-11-20T07:13:40;14;9;
70241;PMS5003;57631;52.218;0.108;2022-11-20T07:16:07;11;11;
70241;PMS5003;57631;52.218;0.108;2022-11-20T07:18:31;11;8;
70241;PMS5003;57631;52.218;0.108;2022-11-20T07:20:59;20;13;
70241;PMS5003;57631;52.218;0.108;2022-11-20T07:23:22;14;13;
70241;PMS5003;57631;52.218;0.108;2022-11-20T07:25:48;15;9;
70241;PMS5003;57631;52.218;0.108;2022-11-20T07:28:13;10;9;
70241;PMS5003;57631;52.218;0.108;2022-11-20T07:30:39;11;10;
70241;PMS5003;57631;52.218;0.108;2022-11-20T07:33:04;8;8;
70241;PMS5003;57631;52.218;0.108;2022-11-20T07:35:30;9;8;
70241;PMS5003;57631;52.218;0.108;2022-11-20T07:37:55;12;9;
70241;PMS5003;57631;52.218;0.108;2022-11-20T07:40:21;8;7;
70241;PMS5003;57631;52.218;0.108;2022-11-20T07:42:48;10;8;
70241;PMS5003;57631;52.218;0.108;2022-11-20T07:45:12;10;7;
70241;PMS5003;57631;52.218;0.108;2022-11-20T07:47:37;11;9;
70241;PMS5003;57631;52.218;0.108;2022-11-20T07:50:03;7;7;
70241;PMS5003;57631;52.218;0.108;2022-11-20T07:52:28;7;7;
70241;PMS5003;57631;52.218;0.108;2022-11-20T07:54:54;8;8;
70241;PMS5003;57631;52.218;0.108;2022-11-20T07:57:19;8;8;
70241;PMS5003;57631;52.218;0.108;2022-11-20T07:59:45;9;7;
70241;PMS5003;57631;52.218;0.108;2022-11-20T08:02:10;7;6;
70241;PMS5003;57631;52.218;0.108;2022-11-20T08:04:36;10;8;
70241;PMS5003;57631;52.218;0.108;2022-11-20T08:07:01;11;9;
70241;PMS5003;57631;52.218;0.108;2022-11-20T08:09:27;9;8;
70241;PMS5003;57631;52.218;0.108;2022-11-20T08:11:52;10;8;
70241;PMS5003;57631;52.218;0.108;2022-11-20T08:14:18;9;9;
70241;PMS5003;57631;52.218;0.108;2022-11-20T08:16:44;7;7;
70241;PMS5003;57631;52.218;0.108;2022-11-20T08:19:09;10;10;
70241;PMS5003;57631;52.218;0.108;2022-11-20T08:21:35;13;10;
70241;PMS5003;57631;52.218;0.108;2022-11-20T08:24:00;9;9;
70241;PMS5003;57631;52.218;0.108;2022-11-20T08:26:25;10;10;
70241;PMS5003;57631;52.218;0.108;2022-11-20T08:28:53;11;11;
70241;PMS5003;57631;52.218;0.108;2022-11-20T08:31:16;13;12;
70241;PMS5003;57631;52.218;0.108;2022-11-20T08:33:41;11;9;
70241;PMS5003;57631;52.218;0.108;2022-11-20T08:36:07;8;8;
70241;PMS5003;57631;52.218;0.108;2022-11-20T08:38:32;9;9;
70241;PMS5003;57631;52.218;0.108;2022-11-20T08:40:58;8;7;
70241;PMS5003;57631;52.218;0.108;2022-11-20T08:43:23;11;9;
70241;PMS5003;57631;52.218;0.108;2022-11-20T08:45:49;9;9;
70241;PMS5003;57631;52.218;0.108;2022-11-20T08:48:14;9;8;
70241;PMS5003;57631;52.218;0.108;2022-11-20T08:50:40;10;10;
70241;PMS5003;57631;52.218;0.108;2022-11-20T08:53:05;10;10;
70241;PMS5003;57631;52.218;0.108;2022-11-20T08:55:30;9;9;
70241;PMS5003;57631;52.218;0.108;2022-11-20T08:57:56;9;9;
70241;PMS5003;57631;52.218;0.108;2022-11-20T09:00:22;9;8;
70241;PMS5003;57631;52.218;0.108;2022-11-20T09:02:47;11;8;
70241;PMS5003;57631;52.218;0.108;2022-11-20T09:05:13;9;8;
70241;PMS5003;57631;52.218;0.108;2022-11-20T09:07:38;7;6;
70241;PMS5003;57631;52.218;0.108;2022-11-20T09:10:04;10;7;
70241;PMS5003;57631;52.218;0.108;2022-11-20T09:12:29;11;7;
70241;PMS5003;57631;52.218;0.108;2022-11-20T09:14:55;5;5;
70241;PMS5003;57631;52.218;0.108;2022-11-20T09:17:20;6;6;
70241;PMS5003;57631;52.218;0.108;2022-11-20T09:19:46;5;5;
70241;PMS5003;57631;52.218;0.108;2022-11-20T09:22:11;11;7;
70241;PMS5003;57631;52.218;0.108;2022-11-20T09:24:37;8;5;
70241;PMS5003;57631;52.218;0.108;2022-11-20T09:27:03;8;7;
70241;PMS5003;57631;52.218;0.108;2022-11-20T09:29:27;14;10;
70241;PMS5003;57631;52.218;0.108;2022-11-20T09:31:52;11;8;
70241;PMS5003;57631;52.218;0.108;2022-11-20T09:34:18;11;7;
70241;PMS5003;57631;52.218;0.108;2022-11-20T09:36:43;13;8;
70241;PMS5003;57631;52.218;0.108;2022-11-20T09:39:09;7;5;
70241;PMS5003;57631;52.218;0.108;2022-11-20T09:41:39;10;8;
70241;PMS5003;57631;52.218;0.108;2022-11-20T09:44:02;6;6;
70241;PMS5003;57631;52.218;0.108;2022-11-20T09:46:27;7;6;
70241;PMS5003;57631;52.218;0.108;2022-11-20T09:48:55;8;6;
70241;PMS5003;57631;52.218;0.108;2022-11-20T09:51:20;8;5;
70241;PMS5003;57631;52.218;0.108;2022-11-20T09:53:45;10;6;
70241;PMS5003;57631;52.218;0.108;2022-11-20T09:56:08;8;6;
70241;PMS5003;57631;52.218;0.108;2022-11-20T09:58:34;6;6;
70241;PMS5003;57631;52.218;0.108;2022-11-20T10:01:00;6;5;
70241;PMS5003;57631;52.218;0.108;2022-11-20T10:03:26;5;3;
70241;PMS5003;57631;52.218;0.108;2022-11-20T10:05:50;5;5;
70241;PMS5003;57631;52.218;0.108;2022-11-20T10:08:16;5;4;
70241;PMS5003;57631;52.218;0.108;2022-11-20T10:10:42;7;5;
70241;PMS5003;57631;52.218;0.108;2022-11-20T10:13:12;8;7;
70241;PMS5003;57631;52.218;0.108;2022-11-20T10:15:33;5;5;
70241;PMS5003;57631;52.218;0.108;2022-11-20T10:18:03;10;5;
70241;PMS5003;57631;52.218;0.108;2022-11-20T10:20:25;8;4;
70241;PMS5003;57631;52.218;0.108;2022-11-20T10:22:53;5;4;
70241;PMS5003;57631;52.218;0.108;2022-11-20T10:25:15;6;4;
70241;PMS5003;57631;52.218;0.108;2022-11-20T10:27:44;6;5;
70241;PMS5003;57631;52.218;0.108;2022-11-20T10:30:08;6;5;
70241;PMS5003;57631;52.218;0.108;2022-11-20T10:32:33;8;3;
70241;PMS5003;57631;52.218;0.108;2022-11-20T10:34:57;11;3;
70241;PMS5003;57631;52.218;0.108;2022-11-20T10:37:22;4;4;
70241;PMS5003;57631;52.218;0.108;2022-11-20T10:39:49;3;3;
70241;PMS5003;57631;52.218;0.108;2022-11-20T10:42:14;12;9;
70241;PMS5003;57631;52.218;0.108;2022-11-20T10:44:39;3;3;
70241;PMS5003;57631;52.218;0.108;2022-11-20T10:47:04;5;3;
70241;PMS5003;57631;52.218;0.108;2022-11-20T10:49:30;7;6;
70241;PMS5003;57631;52.218;0.108;2022-11-20T10:51:58;8;3;
70241;PMS5003;57631;52.218;0.108;2022-11-20T10:54:22;6;3;
70241;PMS5003;57631;52.218;0.108;2022-11-20T10:56:47;8;4;
70241;PMS5003;57631;52.218;0.108;2022-11-20T10:59:17;11;5;
70241;PMS5003;57631;52.218;0.108;2022-11-20T11:01:39;4;3;
70241;PMS5003;57631;52.218;0.108;2022-11-20T11:04:02;9;4;
70241;PMS5003;57631;52.218;0.108;2022-11-20T11:06:29;6;5;
70241;PMS5003;57631;52.218;0.108;2022-11-20T11:08:53;10;9;
70241;PMS5003;57631;52.218;0.108;2022-11-20T11:11:20;5;4;
70241;PMS5003;57631;52.218;0.108;2022-11-20T11:13:43;10;4;
70241;PMS5003;57631;52.218;0.108;2022-11-20T11:18:34;7;3;
70241;PMS5003;57631;52.218;0.108;2022-11-20T11:21:00;4;4;
70241;PMS5003;57631;52.218;0.108;2022-11-20T11:23:28;9;6;
70241;PMS5003;57631;52.218;0.108;2022-11-20T11:25:56;6;4;
70241;PMS5003;57631;52.218;0.108;2022-11-20T11:28:19;6;3;
70241;PMS5003;57631;52.218;0.108;2022-11-20T11:30:42;4;2;
70241;PMS5003;57631;52.218;0.108;2022-11-20T11:33:09;11;6;
70241;PMS5003;57631;52.218;0.108;2022-11-20T11:35:32;6;3;
70241;PMS5003;57631;52.218;0.108;2022-11-20T11:38:02;5;2;
70241;PMS5003;57631;52.218;0.108;2022-11-20T11:40:23;10;5;
70241;PMS5003;57631;52.218;0.108;2022-11-20T11:42:51;12;7;
70241;PMS5003;57631;52.218;0.108;2022-11-20T11:45:15;10;5;
70241;PMS5003;57631;52.218;0.108;2022-11-20T11:47:43;8;5;
70241;PMS5003;57631;52.218;0.108;2022-11-20T11:50:13;8;3;
70241;PMS5003;57631;52.218;0.108;2022-11-20T11:52:31;5;5;
70241;PMS5003;57631;52.218;0.108;2022-11-20T11:54:57;10;8;
70241;PMS5003;57631;52.218;0.108;2022-11-20T11:57:23;12;4;
70241;PMS5003;57631;52.218;0.108;2022-11-20T11:59:51;6;5;
70241;PMS5003;57631;52.218;0.108;2022-11-20T12:02:15;7;4;
70241;PMS5003;57631;52.218;0.108;2022-11-20T12:04:42;12;4;
70241;PMS5003;57631;52.218;0.108;2022-11-20T12:07:10;8;5;
70241;PMS5003;57631;52.218;0.108;2022-11-20T12:09:31;6;3;
70241;PMS5003;57631;52.218;0.108;2022-11-20T12:11:54;4;3;
70241;PMS5003;57631;52.218;0.108;2022-11-20T12:14:20;5;3;
70241;PMS5003;57631;52.218;0.108;2022-11-20T12:16:44;5;3;
70241;PMS5003;57631;52.218;0.108;2022-11-20T12:19:11;4;4;
70241;PMS5003;57631;52.218;0.108;2022-11-20T12:21:38;6;4;
70241;PMS5003;57631;52.218;0.108;2022-11-20T12:24:05;4;4;
70241;PMS5003;57631;52.218;0.108;2022-11-20T12:26:31;7;4;
70241;PMS5003;57631;52.218;0.108;2022-11-20T12:28:54;9;6;
70241;PMS5003;57631;52.218;0.108;2022-11-20T12:31:23;10;5;
70241;PMS5003;57631;52.218;0.108;2022-11-20T12:33:47;4;4;
70241;PMS5003;57631;52.218;0.108;2022-11-20T12:36:12;8;5;
70241;PMS5003;57631;52.218;0.108;2022-11-20T12:38:38;8;3;
70241;PMS5003;57631;52.218;0.108;2022-11-20T12:41:00;5;4;
70241;PMS5003;57631;52.218;0.108;2022-11-20T12:43:24;10;6;
70241;PMS5003;57631;52.218;0.108;2022-11-20T12:48:19;10;5;
70241;PMS5003;57631;52.218;0.108;2022-11-20T12:50:43;7;2;
70241;PMS5003;57631;52.218;0.108;2022-11-20T12:53:07;6;3;
70241;PMS5003;57631;52.218;0.108;2022-11-20T12:55:34;9;4;
70241;PMS5003;57631;52.218;0.108;2022-11-20T12:57:58;9;4;
70241;PMS5003;57631;52.218;0.108;2022-11-20T13:00:22;9;8;
70241;PMS5003;57631;52.218;0.108;2022-11-20T13:05:17;7;4;
70241;PMS5003;57631;52.218;0.108;2022-11-20T13:07:38;10;4;
70241;PMS5003;57631;52.218;0.108;2022-11-20T13:10:04;7;3;
70241;PMS5003;57631;52.218;0.108;2022-11-20T13:12:30;4;4;
70241;PMS5003;57631;52.218;0.108;2022-11-20T13:14:56;9;5;
70241;PMS5003;57631;52.218;0.108;2022-11-20T13:17:22;9;4;
70241;PMS5003;57631;52.218;0.108;2022-11-20T13:19:46;6;3;
70241;PMS5003;57631;52.218;0.108;2022-11-20T13:22:11;6;4;
70241;PMS5003;57631;52.218;0.108;2022-11-20T13:24:36;7;2;
70241;PMS5003;57631;52.218;0.108;2022-11-20T13:27:03;4;1;
70241;PMS5003;57631;52.218;0.108;2022-11-20T13:29:27;5;4;
70241;PMS5003;57631;52.218;0.108;2022-11-20T13:32:00;5;3;
70241;PMS5003;57631;52.218;0.108;2022-11-20T13:34:23;9;4;
70241;PMS5003;57631;52.218;0.108;2022-11-20T13:39:09;3;3;
70241;PMS5003;57631;52.218;0.108;2022-11-20T13:41:35;10;4;
70241;PMS5003;57631;52.218;0.108;2022-11-20T13:44:04;6;4;
70241;PMS5003;57631;52.218;0.108;2022-11-20T13:48:50;2;2;
70241;PMS5003;57631;52.218;0.108;2022-11-20T13:51:21;5;3;
70241;PMS5003;57631;52.218;0.108;2022-11-20T13:53:46;9;3;
70241;PMS5003;57631;52.218;0.108;2022-11-20T13:56:08;7;3;
70241;PMS5003;57631;52.218;0.108;2022-11-20T13:58:36;6;2;
70241;PMS5003;57631;52.218;0.108;2022-11-20T14:00:58;9;3;
70241;PMS5003;57631;52.218;0.108;2022-11-20T14:03:22;11;8;
70241;PMS5003;57631;52.218;0.108;2022-11-20T14:05:49;5;3;
70241;PMS5003;57631;52.218;0.108;2022-11-20T14:08:14;7;4;
70241;PMS5003;57631;52.218;0.108;2022-11-20T14:10:38;4;4;
70241;PMS5003;57631;52.218;0.108;2022-11-20T14:15:30;6;3;
70241;PMS5003;57631;52.218;0.108;2022-11-20T14:17:55;8;3;
70241;PMS5003;57631;52.218;0.108;2022-11-20T14:20:20;13;8;
70241;PMS5003;57631;52.218;0.108;2022-11-20T14:22:48;5;2;
70241;PMS5003;57631;52.218;0.108;2022-11-20T14:27:37;11;5;
70241;PMS5003;57631;52.218;0.108;2022-11-20T14:30:02;11;4;
70241;PMS5003;57631;52.218;0.108;2022-11-20T14:32:28;8;3;
70241;PMS5003;57631;52.218;0.108;2022-11-20T14:34:52;13;7;
70241;PMS5003;57631;52.218;0.108;2022-11-20T14:37:20;5;4;
70241;PMS5003;57631;52.218;0.108;2022-11-20T14:39:48;8;4;
70241;PMS5003;57631;52.218;0.108;2022-11-20T14:44:35;5;3;
70241;PMS5003;57631;52.218;0.108;2022-11-20T14:47:00;5;5;
70241;PMS5003;57631;52.218;0.108;2022-11-20T14:49:25;10;4;
70241;PMS5003;57631;52.218;0.108;2022-11-20T14:54:17;12;4;
70241;PMS5003;57631;52.218;0.108;2022-11-20T14:56:42;10;3;
70241;PMS5003;57631;52.218;0.108;2022-11-20T14:59:07;5;5;
70241;PMS5003;57631;52.218;0.108;2022-11-20T15:01:33;13;7;
70241;PMS5003;57631;52.218;0.108;2022-11-20T15:04:00;6;5;
70241;PMS5003;57631;52.218;0.108;2022-11-20T15:06:25;3;3;
70241;PMS5003;57631;52.218;0.108;2022-11-20T15:08:50;9;6;
70241;PMS5003;57631;52.218;0.108;2022-11-20T15:11:16;4;4;
70241;PMS5003;57631;52.218;0.108;2022-11-20T15:13:40;9;3;
70241;PMS5003;57631;52.218;0.108;2022-11-20T15:16:08;10;4;
70241;PMS5003;57631;52.218;0.108;2022-11-20T15:18:32;9;5;
70241;PMS5003;57631;52.218;0.108;2022-11-20T15:20:57;10;10;
70241;PMS5003;57631;52.218;0.108;2022-11-20T15:23:22;6;5;
70241;PMS5003;57631;52.218;0.108;2022-11-20T15:25:47;10;5;
70241;PMS5003;57631;52.218;0.108;2022-11-20T15:28:15;5;4;
70241;PMS5003;57631;52.218;0.108;2022-11-20T15:30:38;5;2;
70241;PMS5003;57631;52.218;0.108;2022-11-20T15:33:04;5;5;
70241;PMS5003;57631;52.218;0.108;2022-11-20T15:35:29;6;5;
70241;PMS5003;57631;52.218;0.108;2022-11-20T15:37:55;8;5;
70241;PMS5003;57631;52.218;0.108;2022-11-20T15:40:20;7;4;
70241;PMS5003;57631;52.218;0.108;2022-11-20T15:42:45;7;4;
70241;PMS5003;57631;52.218;0.108;2022-11-20T15:45:11;12;9;
70241;PMS5003;57631;52.218;0.108;2022-11-20T15:47:37;18;7;
70241;PMS5003;57631;52.218;0.108;2022-11-20T15:50:02;4;4;
70241;PMS5003;57631;52.218;0.108;2022-11-20T15:52:28;5;4;
70241;PMS5003;57631;52.218;0.108;2022-11-20T15:54:53;5;4;
70241;PMS5003;57631;52.218;0.108;2022-11-20T15:57:19;7;6;
70241;PMS5003;57631;52.218;0.108;2022-11-20T15:59:44;7;6;
70241;PMS5003;57631;52.218;0.108;2022-11-20T16:02:10;9;4;
70241;PMS5003;57631;52.218;0.108;2022-11-20T16:04:36;4;4;
70241;PMS5003;57631;52.218;0.108;2022-11-20T16:07:01;9;5;
70241;PMS5003;57631;52.218;0.108;2022-11-20T16:09:26;7;3;
70241;PMS5003;57631;52.218;0.108;2022-11-20T16:11:51;13;10;
70241;PMS5003;57631;52.218;0.108;2022-11-20T16:14:17;10;5;
70241;PMS5003;57631;52.218;0.108;2022-11-20T16:16:42;10;9;
70241;PMS5003;57631;52.218;0.108;2022-11-20T16:19:09;14;10;
70241;PMS5003;57631;52.218;0.108;2022-11-20T16:21:33;6;2;
70241;PMS5003;57631;52.218;0.108;2022-11-20T16:23:59;6;3;
70241;PMS5003;57631;52.218;0.108;2022-11-20T16:26:24;10;4;
70241;PMS5003;57631;52.218;0.108;2022-11-20T16:28:49;8;6;
70241;PMS5003;57631;52.218;0.108;2022-11-20T16:31:16;10;4;
70241;PMS5003;57631;52.218;0.108;2022-11-20T16:33:42;3;3;
70241;PMS5003;57631;52.218;0.108;2022-11-20T16:36:08;4;4;
70241;PMS5003;57631;52.218;0.108;2022-11-20T16:38:32;3;1;
70241;PMS5003;57631;52.218;0.108;2022-11-20T16:40:59;6;2;
70241;PMS5003;57631;52.218;0.108;2022-11-20T16:43:23;5;4;
70241;PMS5003;57631;52.218;0.108;2022-11-20T16:45:49;11;5;